createdAt,value
2018-03-27T00:00:31.796Z,96.92
2018-03-27T00:01:31.772Z,97.02
2018-03-27T00:02:31.739Z,97.5
2018-03-27T00:03:31.464Z,97.5
2018-03-27T00:04:31.684Z,97.12
2018-03-27T00:05:31.654Z,97.5
2018-03-27T00:06:31.625Z,97.4
2018-03-27T00:07:31.600Z,97.5
2018-03-27T00:08:31.568Z,97.31
2018-03-27T00:09:31.553Z,97.21
2018-03-27T00:10:31.566Z,97.4
2018-03-27T00:11:31.488Z,97.5
2018-03-27T00:12:31.453Z,97.31
2018-03-27T00:13:31.421Z,97.5
2018-03-27T00:14:31.398Z,97.31
2018-03-27T00:15:31.366Z,97.4
2018-03-27T00:16:31.407Z,97.21
2018-03-27T00:17:31.306Z,97.59
2018-03-27T00:18:31.031Z,97.59
2018-03-27T00:19:31.009Z,97.78
2018-03-27T00:20:30.974Z,97.83
2018-03-27T00:21:31.192Z,97.73
2018-03-27T00:22:31.160Z,97.92
2018-03-27T00:23:31.136Z,97.92
2018-03-27T00:24:31.106Z,97.83
2018-03-27T00:25:31.086Z,97.83
2018-03-27T00:26:30.797Z,97.64
2018-03-27T00:27:31.022Z,97.73
2018-03-27T00:28:31.034Z,97.54
2018-03-27T00:29:30.961Z,98.02
2018-03-27T00:30:30.932Z,97.92
2018-03-27T00:31:30.902Z,97.83
2018-03-27T00:32:30.870Z,97.92
2018-03-27T00:33:30.846Z,97.92
2018-03-27T00:34:30.865Z,98.02
2018-03-27T00:35:30.784Z,97.92
2018-03-27T00:36:30.753Z,98.21
2018-03-27T00:37:30.477Z,98.21
2018-03-27T00:38:30.696Z,97.83
2018-03-27T00:39:30.669Z,98.21
2018-03-27T00:40:30.639Z,98.11
2018-03-27T00:41:30.609Z,97.83
2018-03-27T00:42:30.588Z,97.45
2018-03-27T00:43:30.551Z,97.64
2018-03-27T00:44:30.524Z,97.26
2018-03-27T00:45:30.245Z,97.31
2018-03-27T00:46:30.464Z,97.4
2018-03-27T00:47:30.438Z,97.59
2018-03-27T00:48:30.406Z,97.4
2018-03-27T00:49:30.377Z,97.5
2018-03-27T00:50:30.352Z,97.59
2018-03-27T00:51:30.327Z,97.31
2018-03-27T00:52:30.287Z,97.21
2018-03-27T00:53:30.263Z,97.21
2018-03-27T00:54:30.242Z,97.12
2018-03-27T00:55:29.953Z,97.12
2018-03-27T00:56:30.173Z,96.64
2018-03-27T00:57:30.144Z,97.02
2018-03-27T00:58:29.868Z,97.12
2018-03-27T00:59:30.088Z,97.4
2018-03-27T01:00:30.058Z,97.12
2018-03-27T01:01:30.032Z,96.73
2018-03-27T01:02:30.001Z,97.02
2018-03-27T01:03:29.974Z,97.02
2018-03-27T01:04:29.946Z,97.02
2018-03-27T01:05:29.666Z,97.4
2018-03-27T01:06:29.890Z,97.02
2018-03-27T01:07:29.611Z,96.92
2018-03-27T01:08:29.831Z,97.02
2018-03-27T01:09:29.799Z,97.02
2018-03-27T01:10:29.774Z,97.02
2018-03-27T01:11:29.741Z,97.16
2018-03-27T01:12:29.712Z,97.16
2018-03-27T01:13:29.687Z,96.97
2018-03-27T01:14:29.657Z,97.07
2018-03-27T01:15:29.624Z,97.07
2018-03-27T01:16:29.605Z,96.59
2018-03-27T01:17:29.624Z,97.16
2018-03-27T01:18:29.542Z,96.88
2018-03-27T01:19:29.261Z,97.35
2018-03-27T01:20:29.480Z,96.69
2018-03-27T01:21:29.452Z,97.07
2018-03-27T01:22:29.421Z,97.07
2018-03-27T01:23:29.391Z,96.88
2018-03-27T01:24:29.116Z,96.88
2018-03-27T01:25:29.333Z,96.88
2018-03-27T01:26:29.306Z,96.69
2018-03-27T01:27:29.279Z,96.88
2018-03-27T01:28:29.247Z,96.69
2018-03-27T01:29:29.218Z,97.07
2018-03-27T01:30:29.192Z,97.26
2018-03-27T01:31:29.161Z,97.35
2018-03-27T01:32:29.128Z,96.88
2018-03-27T01:33:29.098Z,96.97
2018-03-27T01:34:28.826Z,97.45
2018-03-27T01:35:29.046Z,97.45
2018-03-27T01:36:29.013Z,97.45
2018-03-27T01:37:28.981Z,97.26
2018-03-27T01:38:28.954Z,97.45
2018-03-27T01:39:28.924Z,97.35
2018-03-27T01:40:28.896Z,97.54
2018-03-27T01:41:28.864Z,97.54
2018-03-27T01:42:28.836Z,97.16
2018-03-27T01:43:28.812Z,97.16
2018-03-27T01:44:28.527Z,97.26
2018-03-27T01:45:28.498Z,97.35
2018-03-27T01:46:28.734Z,96.97
2018-03-27T01:47:28.686Z,97.73
2018-03-27T01:48:28.662Z,97.73
2018-03-27T01:49:28.633Z,97.83
2018-03-27T01:50:28.598Z,97.45
2018-03-27T01:51:28.574Z,98.02
2018-03-27T01:52:28.539Z,98.11
2018-03-27T01:53:28.513Z,97.92
2018-03-27T01:54:28.489Z,97.83
2018-03-27T01:55:28.454Z,97.83
2018-03-27T01:56:28.433Z,98.58
2018-03-27T01:57:28.145Z,98.68
2018-03-27T01:58:28.364Z,98.49
2018-03-27T01:59:28.340Z,98.02
2018-03-27T02:00:28.315Z,97.83
2018-03-27T02:01:28.274Z,98.02
2018-03-27T02:02:28.251Z,98.68
2018-03-27T02:03:28.216Z,98.3
2018-03-27T02:04:28.189Z,98.39
2018-03-27T02:05:28.159Z,98.39
2018-03-27T02:06:28.127Z,98.58
2018-03-27T02:07:28.099Z,98.49
2018-03-27T02:08:28.069Z,98.39
2018-03-27T02:09:28.041Z,98.3
2018-03-27T02:10:28.012Z,98.39
2018-03-27T02:11:27.982Z,98.49
2018-03-27T02:12:27.949Z,98.3
2018-03-27T02:13:27.924Z,98.58
2018-03-27T02:14:27.657Z,98.58
2018-03-27T02:15:27.615Z,98.68
2018-03-27T02:16:27.835Z,98.39
2018-03-27T02:17:27.806Z,98.68
2018-03-27T02:18:27.776Z,98.21
2018-03-27T02:19:27.762Z,98.21
2018-03-27T02:20:27.716Z,98.3
2018-03-27T02:21:27.687Z,98.49
2018-03-27T02:22:27.769Z,98.3
2018-03-27T02:23:27.381Z,98.3
2018-03-27T02:24:27.602Z,98.3
2018-03-27T02:25:27.576Z,98.3
2018-03-27T02:26:27.293Z,98.21
2018-03-27T02:27:27.511Z,98.49
2018-03-27T02:28:27.484Z,98.58
2018-03-27T02:29:27.467Z,98.3
2018-03-27T02:30:27.426Z,98.39
2018-03-27T02:31:27.394Z,98.3
2018-03-27T02:32:27.368Z,98.49
2018-03-27T02:33:27.337Z,98.3
2018-03-27T02:34:27.314Z,98.68
2018-03-27T02:35:27.280Z,98.87
2018-03-27T02:36:27.250Z,99.34
2018-03-27T02:37:27.222Z,99.15
2018-03-27T02:38:27.204Z,99.15
2018-03-27T02:39:27.163Z,99.06
2018-03-27T02:40:27.133Z,98.96
2018-03-27T02:41:27.107Z,98.87
2018-03-27T02:42:27.079Z,98.96
2018-03-27T02:43:27.044Z,99.06
2018-03-27T02:44:27.016Z,99.06
2018-03-27T02:45:26.992Z,98.87
2018-03-27T02:46:26.711Z,98.87
2018-03-27T02:47:26.937Z,98.77
2018-03-27T02:48:26.905Z,99.82
2018-03-27T02:49:26.870Z,99.53
2018-03-27T02:50:26.840Z,99.53
2018-03-27T02:51:26.817Z,98.96
2018-03-27T02:52:26.786Z,99.34
2018-03-27T02:53:26.756Z,99.34
2018-03-27T02:54:26.477Z,99.44
2018-03-27T02:55:26.702Z,99.72
2018-03-27T02:56:26.681Z,99.72
2018-03-27T02:57:26.642Z,99.72
2018-03-27T02:58:26.605Z,99.99
2018-03-27T02:59:26.578Z,99.99
2018-03-27T03:00:26.558Z,99.99
2018-03-27T03:01:26.527Z,99.99
2018-03-27T03:02:26.491Z,99.99
2018-03-27T03:03:26.465Z,99.99
2018-03-27T03:04:26.431Z,99.99
2018-03-27T03:05:26.402Z,99.99
2018-03-27T03:06:26.372Z,99.99
2018-03-27T03:07:26.342Z,99.99
2018-03-27T03:08:26.313Z,99.99
2018-03-27T03:09:26.285Z,99.99
2018-03-27T03:10:26.255Z,99.99
2018-03-27T03:11:25.973Z,99.99
2018-03-27T03:12:26.196Z,99.99
2018-03-27T03:13:26.162Z,99.99
2018-03-27T03:14:26.138Z,99.99
2018-03-27T03:15:26.137Z,99.99
2018-03-27T03:16:26.072Z,99.99
2018-03-27T03:17:26.048Z,99.99
2018-03-27T03:18:26.015Z,99.99
2018-03-27T03:19:25.988Z,99.99
2018-03-27T03:20:25.963Z,99.99
2018-03-27T03:21:25.928Z,99.99
2018-03-27T03:22:25.896Z,99.99
2018-03-27T03:23:25.870Z,99.99
2018-03-27T03:24:25.836Z,99.99
2018-03-27T03:25:25.808Z,99.99
2018-03-27T03:26:25.776Z,99.99
2018-03-27T03:27:25.756Z,99.99
2018-03-27T03:28:25.805Z,99.99
2018-03-27T03:29:25.691Z,99.99
2018-03-27T03:30:25.661Z,99.99
2018-03-27T03:31:25.634Z,99.99
2018-03-27T03:32:25.600Z,99.99
2018-03-27T03:33:25.568Z,99.99
2018-03-27T03:34:25.537Z,99.99
2018-03-27T03:35:25.511Z,99.99
2018-03-27T03:36:25.483Z,99.99
2018-03-27T03:37:25.203Z,99.99
2018-03-27T03:38:25.421Z,99.99
2018-03-27T03:39:25.392Z,99.99
2018-03-27T03:40:25.365Z,99.99
2018-03-27T03:41:25.332Z,99.99
2018-03-27T03:42:25.311Z,99.99
2018-03-27T03:43:25.270Z,99.99
2018-03-27T03:44:25.247Z,99.99
2018-03-27T03:45:25.215Z,99.99
2018-03-27T03:46:25.179Z,99.99
2018-03-27T03:47:25.154Z,99.99
2018-03-27T03:48:25.121Z,99.99
2018-03-27T03:49:25.097Z,99.99
2018-03-27T03:50:25.062Z,99.99
2018-03-27T03:51:25.036Z,99.99
2018-03-27T03:52:25.008Z,99.99
2018-03-27T03:53:24.974Z,99.99
2018-03-27T03:54:24.943Z,99.99
2018-03-27T03:55:24.949Z,99.99
2018-03-27T03:56:24.882Z,99.99
2018-03-27T03:57:24.603Z,99.99
2018-03-27T03:58:24.823Z,99.99
2018-03-27T03:59:24.546Z,99.99
2018-03-27T04:00:24.826Z,99.99
2018-03-27T04:01:24.732Z,99.99
2018-03-27T04:02:24.704Z,99.99
2018-03-27T04:03:24.683Z,99.99
2018-03-27T04:04:24.646Z,99.99
2018-03-27T04:05:24.627Z,99.99
2018-03-27T04:06:24.586Z,99.99
2018-03-27T04:07:24.554Z,99.99
2018-03-27T04:08:24.524Z,99.99
2018-03-27T04:09:24.496Z,99.99
2018-03-27T04:10:24.474Z,99.99
2018-03-27T04:11:24.494Z,99.99
2018-03-27T04:12:24.415Z,99.99
2018-03-27T04:13:24.384Z,99.99
2018-03-27T04:14:24.346Z,99.99
2018-03-27T04:15:24.354Z,99.99
2018-03-27T04:16:24.288Z,99.99
2018-03-27T04:17:24.007Z,99.99
2018-03-27T04:18:24.224Z,99.99
2018-03-27T04:19:24.195Z,99.99
2018-03-27T04:20:24.171Z,99.99
2018-03-27T04:21:24.138Z,99.99
2018-03-27T04:22:24.104Z,99.99
2018-03-27T04:23:24.080Z,99.99
2018-03-27T04:24:24.050Z,99.99
2018-03-27T04:25:24.030Z,99.99
2018-03-27T04:26:23.988Z,99.99
2018-03-27T04:27:23.953Z,99.99
2018-03-27T04:28:23.934Z,99.99
2018-03-27T04:29:23.896Z,99.99
2018-03-27T04:30:23.868Z,99.99
2018-03-27T04:31:23.835Z,99.99
2018-03-27T04:32:23.804Z,99.99
2018-03-27T04:33:23.528Z,99.99
2018-03-27T04:34:23.750Z,99.99
2018-03-27T04:35:23.717Z,99.99
2018-03-27T04:36:23.689Z,99.99
2018-03-27T04:37:23.656Z,99.99
2018-03-27T04:38:23.625Z,99.99
2018-03-27T04:39:23.607Z,99.99
2018-03-27T04:40:23.564Z,99.99
2018-03-27T04:41:23.536Z,99.99
2018-03-27T04:42:23.502Z,99.99
2018-03-27T04:43:23.483Z,99.99
2018-03-27T04:44:23.444Z,99.99
2018-03-27T04:45:23.420Z,99.99
2018-03-27T04:46:23.388Z,99.99
2018-03-27T04:47:23.353Z,99.99
2018-03-27T04:48:23.322Z,99.99
2018-03-27T04:49:23.296Z,99.99
2018-03-27T04:50:23.018Z,99.99
2018-03-27T04:51:22.986Z,99.99
2018-03-27T04:52:23.205Z,99.99
2018-03-27T04:53:23.277Z,99.99
2018-03-27T04:54:23.219Z,99.99
2018-03-27T04:55:23.328Z,99.99
2018-03-27T04:56:23.086Z,99.99
2018-03-27T04:57:23.052Z,99.99
2018-03-27T04:58:23.024Z,99.99
2018-03-27T04:59:22.746Z,99.99
2018-03-27T05:00:22.715Z,99.99
2018-03-27T05:01:22.686Z,99.99
2018-03-27T05:02:22.681Z,99.99
2018-03-27T05:03:22.876Z,99.99
2018-03-27T05:04:22.594Z,99.99
2018-03-27T05:05:22.814Z,99.99
2018-03-27T05:06:22.782Z,99.99
2018-03-27T05:07:22.502Z,99.99
2018-03-27T05:08:22.473Z,99.99
2018-03-27T05:09:22.443Z,99.99
2018-03-27T05:10:22.661Z,99.99
2018-03-27T05:11:22.632Z,99.99
2018-03-27T05:12:22.601Z,99.99
2018-03-27T05:13:22.570Z,99.99
2018-03-27T05:14:22.537Z,99.99
2018-03-27T05:15:22.508Z,99.99
2018-03-27T05:16:22.483Z,99.99
2018-03-27T05:17:22.448Z,99.99
2018-03-27T05:18:22.421Z,99.99
2018-03-27T05:19:22.391Z,99.99
2018-03-27T05:20:22.358Z,99.99
2018-03-27T05:21:22.333Z,99.99
2018-03-27T05:22:22.296Z,99.99
2018-03-27T05:23:22.327Z,99.99
2018-03-27T05:24:22.237Z,99.99
2018-03-27T05:25:22.207Z,99.99
2018-03-27T05:26:22.177Z,99.99
2018-03-27T05:27:22.148Z,99.99
2018-03-27T05:28:22.115Z,99.99
2018-03-27T05:29:22.084Z,99.99
2018-03-27T05:30:22.056Z,99.99
2018-03-27T05:31:22.023Z,99.99
2018-03-27T05:32:21.751Z,99.99
2018-03-27T05:33:21.965Z,99.99
2018-03-27T05:34:21.937Z,99.99
2018-03-27T05:35:21.908Z,99.99
2018-03-27T05:36:21.872Z,99.99
2018-03-27T05:37:21.842Z,99.99
2018-03-27T05:38:21.814Z,99.99
2018-03-27T05:39:21.791Z,99.99
2018-03-27T05:40:21.756Z,99.99
2018-03-27T05:41:21.724Z,99.99
2018-03-27T05:42:21.444Z,99.99
2018-03-27T05:43:21.663Z,99.99
2018-03-27T05:44:21.639Z,99.99
2018-03-27T05:45:21.352Z,99.99
2018-03-27T05:46:21.568Z,99.99
2018-03-27T05:47:21.292Z,99.99
2018-03-27T05:48:21.511Z,99.99
2018-03-27T05:49:21.479Z,99.99
2018-03-27T05:50:21.448Z,99.99
2018-03-27T05:51:21.416Z,99.99
2018-03-27T05:52:21.387Z,99.99
2018-03-27T05:53:21.354Z,99.99
2018-03-27T05:54:21.079Z,99.99
2018-03-27T05:55:21.300Z,99.99
2018-03-27T05:56:21.269Z,99.99
2018-03-27T05:57:21.291Z,99.99
2018-03-27T05:58:21.206Z,99.99
2018-03-27T05:59:21.674Z,99.99
2018-03-27T06:00:21.156Z,99.99
2018-03-27T06:01:20.867Z,99.99
2018-03-27T06:02:21.085Z,99.99
2018-03-27T06:03:21.053Z,99.99
2018-03-27T06:04:21.029Z,99.99
2018-03-27T06:05:21.011Z,99.99
2018-03-27T06:06:20.963Z,99.99
2018-03-27T06:07:20.936Z,99.99
2018-03-27T06:08:20.961Z,99.99
2018-03-27T06:09:20.626Z,99.99
2018-03-27T06:10:20.596Z,99.99
2018-03-27T06:11:20.566Z,99.99
2018-03-27T06:12:20.536Z,99.99
2018-03-27T06:13:20.758Z,99.99
2018-03-27T06:14:20.479Z,99.99
2018-03-27T06:15:20.700Z,99.99
2018-03-27T06:16:20.666Z,99.99
2018-03-27T06:17:20.633Z,99.99
2018-03-27T06:18:20.606Z,99.99
2018-03-27T06:19:20.326Z,99.99
2018-03-27T06:20:20.546Z,99.99
2018-03-27T06:21:20.517Z,99.99
2018-03-27T06:22:20.487Z,99.99
2018-03-27T06:23:20.457Z,99.99
2018-03-27T06:24:20.425Z,99.99
2018-03-27T06:25:20.401Z,99.99
2018-03-27T06:26:20.469Z,99.99
2018-03-27T06:27:20.343Z,99.99
2018-03-27T06:28:20.315Z,99.99
2018-03-27T06:29:20.039Z,99.99
2018-03-27T06:30:20.252Z,99.99
2018-03-27T06:31:20.223Z,99.99
2018-03-27T06:32:20.192Z,99.99
2018-03-27T06:33:20.167Z,99.99
2018-03-27T06:34:19.886Z,99.99
2018-03-27T06:35:20.108Z,99.99
2018-03-27T06:36:19.832Z,99.99
2018-03-27T06:37:20.061Z,99.99
2018-03-27T06:38:19.771Z,99.99
2018-03-27T06:39:19.998Z,99.99
2018-03-27T06:40:19.718Z,99.99
2018-03-27T06:41:19.936Z,99.99
2018-03-27T06:42:20.022Z,99.99
2018-03-27T06:43:19.635Z,99.99
2018-03-27T06:44:19.998Z,99.99
2018-03-27T06:45:19.872Z,99.99
2018-03-27T06:46:19.549Z,99.99
2018-03-27T06:47:19.517Z,99.99
2018-03-27T06:48:19.738Z,99.99
2018-03-27T06:49:19.714Z,99.99
2018-03-27T06:50:19.685Z,99.99
2018-03-27T06:51:19.650Z,99.99
2018-03-27T06:52:19.630Z,99.99
2018-03-27T06:53:19.350Z,99.99
2018-03-27T06:54:19.574Z,99.99
2018-03-27T06:55:19.555Z,99.99
2018-03-27T06:56:19.515Z,99.99
2018-03-27T06:57:19.238Z,99.99
2018-03-27T06:58:19.461Z,99.99
2018-03-27T06:59:19.183Z,99.99
2018-03-27T07:00:19.405Z,99.99
2018-03-27T07:01:19.416Z,99.99
2018-03-27T07:02:19.351Z,99.99
2018-03-27T07:03:19.345Z,99.99
2018-03-27T07:04:19.313Z,99.99
2018-03-27T07:05:19.450Z,99.99
2018-03-27T07:06:18.988Z,99.99
2018-03-27T07:07:18.963Z,99.99
2018-03-27T07:08:18.938Z,99.99
2018-03-27T07:09:18.935Z,99.99
2018-03-27T07:10:19.128Z,99.99
2018-03-27T07:11:19.104Z,99.99
2018-03-27T07:12:19.284Z,99.99
2018-03-27T07:13:19.099Z,99.99
2018-03-27T07:14:19.063Z,99.99
2018-03-27T07:15:19.000Z,99.99
2018-03-27T07:16:18.968Z,99.99
2018-03-27T07:17:18.940Z,99.99
2018-03-27T07:18:18.960Z,99.99
2018-03-27T07:19:18.899Z,99.99
2018-03-27T07:20:18.898Z,99.99
2018-03-27T07:21:18.921Z,99.99
2018-03-27T07:22:18.822Z,99.99
2018-03-27T07:23:18.782Z,99.99
2018-03-27T07:24:18.753Z,99.99
2018-03-27T07:25:18.479Z,99.87
2018-03-27T07:26:18.708Z,99.4
2018-03-27T07:27:18.676Z,99.21
2018-03-27T07:28:18.650Z,98.92
2018-03-27T07:29:18.622Z,98.54
2018-03-27T07:30:18.599Z,98.59
2018-03-27T07:31:18.673Z,98.59
2018-03-27T07:32:18.547Z,98.02
2018-03-27T07:33:18.526Z,97.27
2018-03-27T07:34:18.491Z,97.27
2018-03-27T07:35:18.464Z,97.07
2018-03-27T07:36:18.442Z,96.69
2018-03-27T07:37:18.419Z,96.31
2018-03-27T07:38:18.400Z,96.5
2018-03-27T07:39:18.381Z,95.65
2018-03-27T07:40:18.338Z,95.27
2018-03-27T07:41:18.317Z,94.98
2018-03-27T07:42:18.289Z,95.08
2018-03-27T07:43:18.379Z,94.51
2018-03-27T07:44:18.292Z,94.23
2018-03-27T07:45:18.216Z,93.94
2018-03-27T07:46:17.938Z,93.94
2018-03-27T07:47:18.160Z,93.75
2018-03-27T07:48:18.137Z,93.27
2018-03-27T07:49:18.115Z,92.51
2018-03-27T07:50:18.086Z,92.42
2018-03-27T07:51:18.060Z,91.89
2018-03-27T07:52:18.035Z,91.8
2018-03-27T07:53:18.010Z,90.85
2018-03-27T07:54:17.736Z,90.75
2018-03-27T07:55:17.960Z,89.9
2018-03-27T07:56:17.938Z,89.8
2018-03-27T07:57:17.664Z,89.33
2018-03-27T07:58:17.647Z,88.67
2018-03-27T07:59:17.863Z,88.38
2018-03-27T08:00:17.837Z,88.28
2018-03-27T08:01:17.809Z,87.71
2018-03-27T08:02:17.789Z,87.34
2018-03-27T08:03:17.769Z,87.14
2018-03-27T08:04:17.740Z,86.86
2018-03-27T08:05:17.713Z,86.57
2018-03-27T08:06:17.692Z,86.19
2018-03-27T08:07:17.663Z,85.66
2018-03-27T08:08:17.393Z,85.28
2018-03-27T08:09:17.618Z,84.77
2018-03-27T08:10:17.594Z,84.52
2018-03-27T08:11:17.376Z,84.05
2018-03-27T08:12:17.545Z,84.33
2018-03-27T08:13:17.291Z,83.86
2018-03-27T08:14:17.248Z,83.29
2018-03-27T08:15:17.470Z,83
2018-03-27T08:16:17.449Z,82.71
2018-03-27T08:17:17.425Z,82.43
2018-03-27T08:18:17.398Z,82.43
2018-03-27T08:19:17.378Z,81.77
2018-03-27T08:20:17.101Z,81.86
2018-03-27T08:21:17.076Z,81.58
2018-03-27T08:22:17.299Z,81.58
2018-03-27T08:23:17.379Z,81.48
2018-03-27T08:24:17.442Z,81.2
2018-03-27T08:25:17.235Z,80.91
2018-03-27T08:26:17.205Z,80.63
2018-03-27T08:27:16.931Z,80.63
2018-03-27T08:28:17.153Z,80.82
2018-03-27T08:29:17.232Z,81.01
2018-03-27T08:30:17.107Z,80.24
2018-03-27T08:31:17.079Z,80.44
2018-03-27T08:32:17.056Z,80.15
2018-03-27T08:33:17.030Z,79.58
2018-03-27T08:34:17.002Z,79.49
2018-03-27T08:35:16.733Z,79.01
2018-03-27T08:36:16.744Z,79.2
2018-03-27T08:37:16.934Z,78.63
2018-03-27T08:38:16.906Z,78.25
2018-03-27T08:39:16.881Z,77.87
2018-03-27T08:40:16.860Z,77.68
2018-03-27T08:41:16.833Z,77.3
2018-03-27T08:42:16.810Z,76.92
2018-03-27T08:43:16.788Z,76.35
2018-03-27T08:44:16.758Z,76.54
2018-03-27T08:45:16.728Z,75.87
2018-03-27T08:46:16.458Z,75.59
2018-03-27T08:47:16.683Z,75.21
2018-03-27T08:48:16.659Z,74.77
2018-03-27T08:49:16.384Z,74.48
2018-03-27T08:50:16.605Z,74.2
2018-03-27T08:51:16.584Z,73.44
2018-03-27T08:52:16.309Z,73.82
2018-03-27T08:53:16.533Z,73.44
2018-03-27T08:54:16.507Z,72.77
2018-03-27T08:55:16.481Z,72.3
2018-03-27T08:56:16.462Z,71.91
2018-03-27T08:57:16.429Z,71.53
2018-03-27T08:58:16.410Z,71.06
2018-03-27T08:59:16.386Z,71.25
2018-03-27T09:00:16.356Z,70.58
2018-03-27T09:01:16.631Z,70.68
2018-03-27T09:02:16.916Z,70.3
2018-03-27T09:03:17.033Z,70.1
2018-03-27T09:04:16.257Z,69.92
2018-03-27T09:05:16.356Z,69.63
2018-03-27T09:06:16.219Z,69.44
2018-03-27T09:07:16.345Z,69.19
2018-03-27T09:08:16.161Z,68.71
2018-03-27T09:09:16.132Z,68.43
2018-03-27T09:10:16.108Z,67.67
2018-03-27T09:11:16.082Z,67.57
2018-03-27T09:12:16.534Z,67.19
2018-03-27T09:13:16.032Z,66.81
2018-03-27T09:14:16.503Z,65.95
2018-03-27T09:15:16.030Z,66.05
2018-03-27T09:16:15.960Z,65.67
2018-03-27T09:17:16.123Z,65.48
2018-03-27T09:18:15.907Z,65.77
2018-03-27T09:19:15.886Z,64.81
2018-03-27T09:20:15.859Z,65.1
2018-03-27T09:21:15.837Z,65.29
2018-03-27T09:22:15.812Z,64.9
2018-03-27T09:23:15.536Z,64.15
2018-03-27T09:24:15.512Z,64.43
2018-03-27T09:25:15.738Z,63.67
2018-03-27T09:26:15.713Z,63.39
2018-03-27T09:27:15.440Z,62.46
2018-03-27T09:28:15.679Z,62.72
2018-03-27T09:29:15.391Z,61.77
2018-03-27T09:30:15.623Z,61.04
2018-03-27T09:31:15.824Z,59.42
2018-03-27T09:32:15.569Z,59.7
2018-03-27T09:33:15.543Z,59.89
2018-03-27T09:34:15.661Z,59.32
2018-03-27T09:35:15.576Z,59.13
2018-03-27T09:36:15.820Z,58.56
2018-03-27T09:37:15.761Z,57.23
2018-03-27T09:38:15.321Z,56.37
2018-03-27T09:39:15.397Z,55.99
2018-03-27T09:40:15.552Z,55.32
2018-03-27T09:41:15.362Z,54.66
2018-03-27T09:42:15.322Z,54.37
2018-03-27T09:43:15.051Z,54.37
2018-03-27T09:44:15.277Z,53.89
2018-03-27T09:45:15.269Z,53.61
2018-03-27T09:46:15.226Z,53.04
2018-03-27T09:47:15.211Z,52.47
2018-03-27T09:48:15.183Z,52.18
2018-03-27T09:49:15.156Z,51.32
2018-03-27T09:50:15.136Z,50.21
2018-03-27T09:51:15.131Z,49.73
2018-03-27T09:52:15.088Z,49.8
2018-03-27T09:53:15.060Z,49.06
2018-03-27T09:54:15.037Z,48.49
2018-03-27T09:55:15.058Z,48.49
2018-03-27T09:56:14.989Z,47.92
2018-03-27T09:57:14.968Z,47.82
2018-03-27T09:58:14.980Z,47.16
2018-03-27T09:59:14.920Z,46.49
2018-03-27T10:00:14.903Z,46.87
2018-03-27T10:01:14.884Z,46.68
2018-03-27T10:02:15.616Z,46.78
2018-03-27T10:03:14.828Z,46.2
2018-03-27T10:04:14.818Z,45.94
2018-03-27T10:05:14.780Z,45.54
2018-03-27T10:06:14.507Z,46.01
2018-03-27T10:07:14.733Z,45.63
2018-03-27T10:08:14.709Z,45.54
2018-03-27T10:09:14.468Z,45.06
2018-03-27T10:10:14.417Z,45.25
2018-03-27T10:11:14.563Z,45.08
2018-03-27T10:12:14.624Z,45.08
2018-03-27T10:13:14.604Z,45.18
2018-03-27T10:14:14.575Z,44.51
2018-03-27T10:15:14.550Z,44.8
2018-03-27T10:16:14.534Z,44.42
2018-03-27T10:17:14.505Z,44.32
2018-03-27T10:18:14.490Z,44.06
2018-03-27T10:19:14.465Z,43.68
2018-03-27T10:20:14.439Z,43.96
2018-03-27T10:21:14.417Z,43.58
2018-03-27T10:22:14.458Z,43.01
2018-03-27T10:23:14.375Z,43.01
2018-03-27T10:24:14.356Z,42.63
2018-03-27T10:25:14.329Z,41.77
2018-03-27T10:26:14.069Z,41.39
2018-03-27T10:27:14.288Z,41.2
2018-03-27T10:28:14.266Z,41.29
2018-03-27T10:29:14.247Z,41.29
2018-03-27T10:30:13.977Z,41
2018-03-27T10:31:13.957Z,41.1
2018-03-27T10:32:14.187Z,41.39
2018-03-27T10:33:13.914Z,41.48
2018-03-27T10:34:14.147Z,41.48
2018-03-27T10:35:13.873Z,41.1
2018-03-27T10:36:13.853Z,40.72
2018-03-27T10:37:14.080Z,40.81
2018-03-27T10:38:13.811Z,40.55
2018-03-27T10:39:14.041Z,40.64
2018-03-27T10:40:13.773Z,40.64
2018-03-27T10:41:13.753Z,40.45
2018-03-27T10:42:13.980Z,40.07
2018-03-27T10:43:13.959Z,40.26
2018-03-27T10:44:13.944Z,40.36
2018-03-27T10:45:13.922Z,40.36
2018-03-27T10:46:13.910Z,40.07
2018-03-27T10:47:13.637Z,40.36
2018-03-27T10:48:13.872Z,40.17
2018-03-27T10:49:13.846Z,40.26
2018-03-27T10:50:13.826Z,40.55
2018-03-27T10:51:13.816Z,40.45
2018-03-27T10:52:13.791Z,40.26
2018-03-27T10:53:13.767Z,40.28
2018-03-27T10:54:13.753Z,40.37
2018-03-27T10:55:13.734Z,39.81
2018-03-27T10:56:13.711Z,40.19
2018-03-27T10:57:13.696Z,40.09
2018-03-27T10:58:13.676Z,39.61
2018-03-27T10:59:13.658Z,39.52
2018-03-27T11:00:13.642Z,39.04
2018-03-27T11:01:13.372Z,39.04
2018-03-27T11:02:13.679Z,38.95
2018-03-27T11:03:13.581Z,38.76
2018-03-27T11:04:13.572Z,38.95
2018-03-27T11:05:13.548Z,38.76
2018-03-27T11:06:13.527Z,38.56
2018-03-27T11:07:13.263Z,38.47
2018-03-27T11:08:13.244Z,38.37
2018-03-27T11:09:13.480Z,38.28
2018-03-27T11:10:13.459Z,38.37
2018-03-27T11:11:13.187Z,38.56
2018-03-27T11:12:13.423Z,38.47
2018-03-27T11:13:13.400Z,38.68
2018-03-27T11:14:13.138Z,38.39
2018-03-27T11:15:13.119Z,38.2
2018-03-27T11:16:13.350Z,38.1
2018-03-27T11:17:13.338Z,38.01
2018-03-27T11:18:13.312Z,37.92
2018-03-27T11:19:13.295Z,37.82
2018-03-27T11:20:13.036Z,37.82
2018-03-27T11:21:13.013Z,37.82
2018-03-27T11:22:13.245Z,37.73
2018-03-27T11:23:13.259Z,37.63
2018-03-27T11:24:13.208Z,37.73
2018-03-27T11:25:13.193Z,37.63
2018-03-27T11:26:13.176Z,37.82
2018-03-27T11:27:13.158Z,37.82
2018-03-27T11:28:13.141Z,37.63
2018-03-27T11:29:13.231Z,37.53
2018-03-27T11:30:13.101Z,37.53
2018-03-27T11:31:13.088Z,37.44
2018-03-27T11:32:13.075Z,37.53
2018-03-27T11:33:13.053Z,37.42
2018-03-27T11:34:12.780Z,37.05
2018-03-27T11:35:13.012Z,37.42
2018-03-27T11:36:12.990Z,37.13
2018-03-27T11:37:12.977Z,37.23
2018-03-27T11:38:12.708Z,37.4
2018-03-27T11:39:12.936Z,37.4
2018-03-27T11:40:12.922Z,37.49
2018-03-27T11:41:12.655Z,37.51
2018-03-27T11:42:12.633Z,37.23
2018-03-27T11:43:12.870Z,37.42
2018-03-27T11:44:12.848Z,37.32
2018-03-27T11:45:12.826Z,37.13
2018-03-27T11:46:12.816Z,37.13
2018-03-27T11:47:12.541Z,37.05
2018-03-27T11:48:12.521Z,36.87
2018-03-27T11:49:12.753Z,36.87
2018-03-27T11:50:12.734Z,36.87
2018-03-27T11:51:12.713Z,37.05
2018-03-27T11:52:12.700Z,37.15
2018-03-27T11:53:12.432Z,37.24
2018-03-27T11:54:12.664Z,37.15
2018-03-27T11:55:12.648Z,37.15
2018-03-27T11:56:12.633Z,37.05
2018-03-27T11:57:12.609Z,36.39
2018-03-27T11:58:12.596Z,37.05
2018-03-27T11:59:12.573Z,37.15
2018-03-27T12:00:12.559Z,36.88
2018-03-27T12:01:12.540Z,37.26
2018-03-27T12:02:12.521Z,36.79
2018-03-27T12:03:12.505Z,36.98
2018-03-27T12:04:12.488Z,37.17
2018-03-27T12:05:12.225Z,37.17
2018-03-27T12:06:12.204Z,37.07
2018-03-27T12:07:12.437Z,37.17
2018-03-27T12:08:12.419Z,37.17
2018-03-27T12:09:12.406Z,37.07
2018-03-27T12:10:12.139Z,36.5
2018-03-27T12:11:12.138Z,36.88
2018-03-27T12:12:12.380Z,36.98
2018-03-27T12:13:12.336Z,36.98
2018-03-27T12:14:12.349Z,37.07
2018-03-27T12:15:12.309Z,37.17
2018-03-27T12:16:12.289Z,37.24
2018-03-27T12:17:12.269Z,37.36
2018-03-27T12:18:12.253Z,36.98
2018-03-27T12:19:11.984Z,37.17
2018-03-27T12:20:12.016Z,37.36
2018-03-27T12:21:12.206Z,37.34
2018-03-27T12:22:11.938Z,37.63
2018-03-27T12:23:12.170Z,37.92
2018-03-27T12:24:12.146Z,37.44
2018-03-27T12:25:11.885Z,37.92
2018-03-27T12:26:12.114Z,37.92
2018-03-27T12:27:12.094Z,38.1
2018-03-27T12:28:12.080Z,37.82
2018-03-27T12:29:12.066Z,37.82
2018-03-27T12:30:12.043Z,37.82
2018-03-27T12:31:12.026Z,37.92
2018-03-27T12:32:11.758Z,37.73
2018-03-27T12:33:11.995Z,37.82
2018-03-27T12:34:11.972Z,37.92
2018-03-27T12:35:11.730Z,37.73
2018-03-27T12:36:11.944Z,38.1
2018-03-27T12:37:11.918Z,37.92
2018-03-27T12:38:11.900Z,37.92
2018-03-27T12:39:11.880Z,38.01
2018-03-27T12:40:11.864Z,38.1
2018-03-27T12:41:11.599Z,38.2
2018-03-27T12:42:11.875Z,38.2
2018-03-27T12:43:11.806Z,38.2
2018-03-27T12:44:11.796Z,38.3
2018-03-27T12:45:11.522Z,38.2
2018-03-27T12:46:11.632Z,38.76
2018-03-27T12:47:11.892Z,38.47
2018-03-27T12:48:11.715Z,38.47
2018-03-27T12:49:11.693Z,38.37
2018-03-27T12:50:11.426Z,38.58
2018-03-27T12:51:11.658Z,38.2
2018-03-27T12:52:11.638Z,38.3
2018-03-27T12:53:11.620Z,38.68
2018-03-27T12:54:11.590Z,38.47